Hlavní strana
METAR-TAF:

METAR-TAF

Letiště :

Letiště Tenerife Jih

Tenerife Jih, Španělsko

zeměpisná šířka: 28-03N, zeměpisná délka: 016-34W, výška: 64 m

Aktuální stav počasí

Zpráva byla vytvořena před 35 minutami, v 04:30 UTC
Západoseverozápadní vítr 15 kt
Teplota 18°C
Vlhkost vzduchu 73%
Tlak 1012 hPa
Viditelnost 10 km a více
Skoro jasno ve výšce 2500 ft

METAR: GCTS 160430Z 29015KT 9999 FEW025 18/13 Q1012 NOSIG

Čas: 05:05 (05:05 UTC)

Předpověď počasí

Zpráva byla vytvořena před 3 hodinami a 5 minutami, v 02:00 UTC
Předpověď platná od 16 v 03 UTC do 17 v 03 UTC
Severní vítr 6 kt
Viditelnost 10 km a více
Skoro jasno ve výšce 2500 ft
Změna
od 16 v 10 UTC do 16 v 12 UTC
Východojihovýchodní vítr 10 kt
Změna
od 16 v 18 UTC do 16 v 20 UTC
Severozápadní vítr 5 kt

TAF: GCTS 160200Z 1603/1703 35006KT 9999 FEW025 TX22/1614Z TN16/1606Z BECMG 1610/1612 12010KT BECMG 1618/1620 31005KT

Stav a předpovědi počasí z více než 4 000 letišť (zprávy METAR a TAF).

Červené a žluté tečky na mapě představují dostupné meteorologické stanice.

Když kurzor umístíte na tečku, zobrazí se název stanice.

Pak kliknutím zobrazíte stav a předpověď počasí.

Chcete-li změnit mapu, kliknutím na zelené tlačítko se znaménkem +mapu přiblížíte, kliknutím na zelené tlačítko se znaménkem – mapu oddálíte a kliknutím na zelené šipky přejdete na sousední mapy.


METAR-TAF: